Terminal Aerodrome Forecast
Issued by NWS

Home | Current Version | Previous Version | Text Only | Print | Product List | Glossary On
Versions: 1 2 3 4 5 6 7 8 9 10 11 12 13 14
000
FTUS41 KCAR 011746
TAFFVE
TAF
KFVE 011746Z 0118/0218 20009KT P6SM BKN250
     FM020300 18005KT P6SM -SN SCT015 OVC035
     FM020500 19004KT 2SM -SN SCT007 OVC015
     FM020700 VRB03KT 1SM -SN OVC010
     FM020900 VRB03KT 2SM -SN OVC007
     FM021200 00000KT 2SM -SN OVC003
     FM021600 29006KT 3SM -SN OVC007=

USA.gov is the U.S. government's official web portal to all federal, state and local government web resources and services.